N303J -KMVY
Flight info
| Callsign | N303J |
|---|---|
| Flight time | N/A |
| Altitude | VFR |
| Route | |
| Aircraft |
Departure
| Time | N/A |
|---|---|
| Airport | - |
Arrival
| Time | 2026-04-29 16:04 |
|---|---|
| Airport | Martha's Vineyard Airport (KMVY) |
| Time | Latitude | Longitude | Altitude | Speed | Heading |
|---|---|---|---|---|---|
| 2026-04-29 15:33 | 39.86152 | -73.26423 | 17499 ft | 350 kts | 67° |
| 2026-04-29 15:33 | 39.87026 | -73.23478 | 17498 ft | 349 kts | 67° |
| 2026-04-29 15:33 | 39.87898 | -73.20532 | 17497 ft | 348 kts | 67° |
| 2026-04-29 15:34 | 39.88771 | -73.17583 | 17497 ft | 348 kts | 67° |
| 2026-04-29 15:34 | 39.89642 | -73.14639 | 17507 ft | 348 kts | 67° |
| 2026-04-29 15:34 | 39.90502 | -73.11718 | 17506 ft | 349 kts | 67° |
| 2026-04-29 15:34 | 39.91368 | -73.08768 | 17503 ft | 349 kts | 67° |
| 2026-04-29 15:35 | 39.92227 | -73.05812 | 17502 ft | 349 kts | 69° |
| 2026-04-29 15:35 | 39.92949 | -73.02781 | 17482 ft | 350 kts | 72° |
| 2026-04-29 15:35 | 39.93587 | -72.99715 | 17485 ft | 350 kts | 73° |
| 2026-04-29 15:35 | 39.94212 | -72.96643 | 17484 ft | 350 kts | 72° |
| 2026-04-29 15:36 | 39.95050 | -72.93674 | 17471 ft | 349 kts | 62° |
| 2026-04-29 15:36 | 39.96321 | -72.91007 | 17473 ft | 345 kts | 49° |
| 2026-04-29 15:36 | 39.97859 | -72.88656 | 17482 ft | 345 kts | 45° |
| 2026-04-29 15:36 | 39.99428 | -72.86273 | 17481 ft | 347 kts | 48° |
| 2026-04-29 15:37 | 40.00867 | -72.83741 | 17485 ft | 348 kts | 52° |
| 2026-04-29 15:37 | 40.02253 | -72.81152 | 17483 ft | 347 kts | 51° |
| 2026-04-29 15:37 | 40.03683 | -72.78628 | 17481 ft | 345 kts | 49° |
| 2026-04-29 15:37 | 40.05138 | -72.76142 | 17487 ft | 344 kts | 49° |
| 2026-04-29 15:38 | 40.06572 | -72.73641 | 17485 ft | 344 kts | 50° |
| 2026-04-29 15:38 | 40.07986 | -72.71128 | 17482 ft | 343 kts | 50° |
| 2026-04-29 15:38 | 40.09407 | -72.68620 | 17484 ft | 344 kts | 50° |
| 2026-04-29 15:38 | 40.10838 | -72.66111 | 17483 ft | 345 kts | 50° |
| 2026-04-29 15:39 | 40.12271 | -72.63592 | 17489 ft | 346 kts | 50° |
| 2026-04-29 15:39 | 40.13707 | -72.61057 | 17489 ft | 347 kts | 50° |
| 2026-04-29 15:39 | 40.15140 | -72.58527 | 17490 ft | 345 kts | 50° |
| 2026-04-29 15:39 | 40.16539 | -72.56052 | 17484 ft | 340 kts | 50° |
| 2026-04-29 15:40 | 40.17944 | -72.53570 | 17479 ft | 339 kts | 50° |
| 2026-04-29 15:40 | 40.19350 | -72.51088 | 17478 ft | 341 kts | 50° |
| 2026-04-29 15:40 | 40.20767 | -72.48580 | 17484 ft | 343 kts | 50° |
| 2026-04-29 15:40 | 40.22184 | -72.46068 | 17483 ft | 343 kts | 50° |
| 2026-04-29 15:41 | 40.23594 | -72.43564 | 17483 ft | 339 kts | 50° |
| 2026-04-29 15:41 | 40.24991 | -72.41087 | 17483 ft | 338 kts | 50° |
| 2026-04-29 15:41 | 40.26387 | -72.38609 | 17482 ft | 339 kts | 50° |
| 2026-04-29 15:41 | 40.27790 | -72.36117 | 17486 ft | 341 kts | 50° |
| 2026-04-29 15:42 | 40.29183 | -72.33639 | 17484 ft | 342 kts | 50° |
| 2026-04-29 15:42 | 40.30592 | -72.31129 | 17484 ft | 341 kts | 50° |
| 2026-04-29 15:42 | 40.32000 | -72.28621 | 17485 ft | 340 kts | 50° |
| 2026-04-29 15:42 | 40.33398 | -72.26129 | 17485 ft | 340 kts | 50° |
| 2026-04-29 15:43 | 40.34796 | -72.23634 | 17477 ft | 338 kts | 50° |
| 2026-04-29 15:43 | 40.36187 | -72.21151 | 17478 ft | 336 kts | 50° |
| 2026-04-29 15:43 | 40.37567 | -72.18683 | 17478 ft | 335 kts | 50° |
| 2026-04-29 15:43 | 40.38951 | -72.16210 | 17488 ft | 337 kts | 50° |
| 2026-04-29 15:44 | 40.40340 | -72.13724 | 17487 ft | 339 kts | 50° |
| 2026-04-29 15:44 | 40.41736 | -72.11223 | 17489 ft | 339 kts | 50° |
| 2026-04-29 15:44 | 40.43113 | -72.08752 | 17489 ft | 338 kts | 50° |
| 2026-04-29 15:44 | 40.44502 | -72.06259 | 17492 ft | 337 kts | 50° |
| 2026-04-29 15:45 | 40.45882 | -72.03782 | 17494 ft | 336 kts | 50° |
| 2026-04-29 15:45 | 40.47264 | -72.01299 | 17493 ft | 337 kts | 50° |
| 2026-04-29 15:45 | 40.48655 | -71.98798 | 17494 ft | 338 kts | 50° |
| 2026-04-29 15:45 | 40.50043 | -71.96299 | 17502 ft | 339 kts | 50° |
| 2026-04-29 15:46 | 40.51434 | -71.93792 | 17504 ft | 340 kts | 50° |
| 2026-04-29 15:46 | 40.52828 | -71.91280 | 17508 ft | 340 kts | 50° |
| 2026-04-29 15:46 | 40.54217 | -71.88773 | 17508 ft | 338 kts | 50° |
| 2026-04-29 15:46 | 40.55598 | -71.86278 | 17504 ft | 336 kts | 51° |
| 2026-04-29 15:47 | 40.56974 | -71.83792 | 17495 ft | 336 kts | 51° |
| 2026-04-29 15:47 | 40.58336 | -71.81329 | 17492 ft | 337 kts | 51° |
| 2026-04-29 15:47 | 40.59714 | -71.78835 | 17489 ft | 337 kts | 51° |
| 2026-04-29 15:47 | 40.61092 | -71.76338 | 17482 ft | 337 kts | 51° |
| 2026-04-29 15:48 | 40.62470 | -71.73838 | 17481 ft | 337 kts | 51° |
| 2026-04-29 15:48 | 40.63849 | -71.71337 | 17486 ft | 338 kts | 51° |
| 2026-04-29 15:48 | 40.65232 | -71.68826 | 17476 ft | 338 kts | 51° |
| 2026-04-29 15:48 | 40.66610 | -71.66321 | 17487 ft | 338 kts | 51° |
| 2026-04-29 15:49 | 40.67992 | -71.63808 | 17475 ft | 338 kts | 51° |
| 2026-04-29 15:49 | 40.69368 | -71.61302 | 17472 ft | 338 kts | 51° |
| 2026-04-29 15:49 | 40.70749 | -71.58787 | 17483 ft | 338 kts | 51° |
| 2026-04-29 15:49 | 40.72128 | -71.56274 | 17491 ft | 338 kts | 51° |
| 2026-04-29 15:50 | 40.73505 | -71.53759 | 17491 ft | 338 kts | 51° |
| 2026-04-29 15:50 | 40.74882 | -71.51243 | 17489 ft | 338 kts | 51° |
| 2026-04-29 15:50 | 40.76245 | -71.48754 | 17494 ft | 338 kts | 51° |
| 2026-04-29 15:50 | 40.77627 | -71.46226 | 17313 ft | 343 kts | 51° |
| 2026-04-29 15:51 | 40.79027 | -71.43665 | 16883 ft | 343 kts | 52° |
| 2026-04-29 15:51 | 40.80407 | -71.41132 | 16436 ft | 336 kts | 52° |
| 2026-04-29 15:51 | 40.81756 | -71.38655 | 15998 ft | 331 kts | 52° |
| 2026-04-29 15:51 | 40.83115 | -71.36166 | 15562 ft | 337 kts | 52° |
| 2026-04-29 15:52 | 40.84481 | -71.33660 | 15121 ft | 333 kts | 52° |
| 2026-04-29 15:52 | 40.85370 | -71.32023 | 14823 ft | 329 kts | 52° |
| 2026-04-29 15:52 | 40.86686 | -71.29597 | 14408 ft | 322 kts | 52° |
| 2026-04-29 15:52 | 40.87983 | -71.27210 | 13978 ft | 317 kts | 53° |
| 2026-04-29 15:53 | 40.89258 | -71.24866 | 13538 ft | 311 kts | 53° |
| 2026-04-29 15:53 | 40.90508 | -71.22564 | 13126 ft | 305 kts | 53° |
| 2026-04-29 15:53 | 40.91735 | -71.20299 | 12731 ft | 300 kts | 53° |
| 2026-04-29 15:53 | 40.92939 | -71.18076 | 12343 ft | 295 kts | 53° |
| 2026-04-29 15:54 | 40.94124 | -71.15884 | 11959 ft | 291 kts | 53° |
| 2026-04-29 15:54 | 40.95295 | -71.13721 | 11572 ft | 287 kts | 53° |
| 2026-04-29 15:54 | 40.96456 | -71.11576 | 11202 ft | 285 kts | 54° |
| 2026-04-29 15:54 | 40.97587 | -71.09482 | 10832 ft | 282 kts | 54° |
| 2026-04-29 15:55 | 40.98739 | -71.07347 | 10448 ft | 281 kts | 54° |
| 2026-04-29 15:55 | 40.99855 | -71.05278 | 10084 ft | 279 kts | 54° |
| 2026-04-29 15:55 | 41.00982 | -71.03186 | 9695 ft | 278 kts | 54° |
| 2026-04-29 15:55 | 41.02099 | -71.01113 | 9315 ft | 275 kts | 54° |
| 2026-04-29 15:56 | 41.03205 | -70.99058 | 8955 ft | 272 kts | 54° |
| 2026-04-29 15:56 | 41.04298 | -70.97028 | 8596 ft | 269 kts | 54° |
| 2026-04-29 15:56 | 41.05377 | -70.95019 | 8244 ft | 266 kts | 54° |
| 2026-04-29 15:56 | 41.06448 | -70.93026 | 7892 ft | 263 kts | 53° |
| 2026-04-29 15:57 | 41.07506 | -70.91058 | 7546 ft | 261 kts | 53° |
| 2026-04-29 15:57 | 41.08550 | -70.89109 | 7208 ft | 258 kts | 52° |
| 2026-04-29 15:57 | 41.09586 | -70.87178 | 6864 ft | 255 kts | 53° |
| 2026-04-29 15:57 | 41.10638 | -70.85342 | 6524 ft | 251 kts | 44° |
| 2026-04-29 15:58 | 41.11981 | -70.83911 | 6198 ft | 245 kts | 30° |
| 2026-04-29 15:58 | 41.13481 | -70.82996 | 6180 ft | 229 kts | 17° |
| 2026-04-29 15:58 | 41.14987 | -70.82502 | 6144 ft | 217 kts | 13° |
| 2026-04-29 15:58 | 41.16461 | -70.82027 | 5752 ft | 222 kts | 14° |
| 2026-04-29 15:59 | 41.17975 | -70.81532 | 5265 ft | 230 kts | 14° |
| 2026-04-29 15:59 | 41.19552 | -70.81026 | 4779 ft | 236 kts | 14° |
| 2026-04-29 15:59 | 41.21162 | -70.80511 | 4359 ft | 237 kts | 14° |
| 2026-04-29 15:59 | 41.22704 | -70.79783 | 4042 ft | 234 kts | 28° |
| 2026-04-29 16:00 | 41.24026 | -70.78556 | 3751 ft | 231 kts | 41° |
| 2026-04-29 16:00 | 41.25236 | -70.77161 | 3471 ft | 230 kts | 40° |
| 2026-04-29 16:00 | 41.26462 | -70.75791 | 3170 ft | 230 kts | 40° |
| 2026-04-29 16:00 | 41.27678 | -70.74420 | 2877 ft | 229 kts | 40° |
| 2026-04-29 16:01 | 41.28874 | -70.73061 | 2591 ft | 227 kts | 40° |
| 2026-04-29 16:01 | 41.30070 | -70.71698 | 2297 ft | 226 kts | 40° |
| 2026-04-29 16:01 | 41.31263 | -70.70346 | 2017 ft | 224 kts | 39° |
| 2026-04-29 16:01 | 41.32426 | -70.69032 | 1970 ft | 212 kts | 40° |
| 2026-04-29 16:02 | 41.33516 | -70.67792 | 1960 ft | 200 kts | 39° |
| 2026-04-29 16:02 | 41.34552 | -70.66621 | 1939 ft | 191 kts | 40° |
| 2026-04-29 16:02 | 41.35423 | -70.65619 | 1914 ft | 133 kts | 40° |
| 2026-04-29 16:02 | 41.36047 | -70.64885 | 1622 ft | 107 kts | 37° |
| 2026-04-29 16:03 | 41.36592 | -70.64266 | 1344 ft | 103 kts | 38° |
| 2026-04-29 16:03 | 41.37177 | -70.63622 | 1127 ft | 113 kts | 36° |
| 2026-04-29 16:03 | 41.37801 | -70.62898 | 778 ft | 125 kts | 36° |
| 2026-04-29 16:03 | 41.38439 | -70.62152 | 236 ft | 119 kts | 31° |
| 2026-04-29 16:04 | 41.39684 | -70.60940 | 1483 ft | 407 kts | 34° |
| 2026-04-29 16:04 | 41.39239 | -70.61272 | 181 ft | 0 kts | 34° |
| 2026-04-29 16:04 | 41.40204 | -70.60383 | 1012 ft | 283 kts | 34° |
| 2026-04-29 16:04 | 41.40792 | -70.58829 | 1240 ft | 178 kts | 121° |
| 2026-04-29 16:05 | 41.39521 | -70.58617 | 477 ft | 197 kts | 206° |
| 2026-04-29 16:05 | 41.38418 | -70.59352 | 713 ft | 170 kts | 208° |
| 2026-04-29 16:05 | 41.37084 | -70.60314 | 1448 ft | 410 kts | 205° |
| 2026-04-29 16:05 | 41.37956 | -70.59757 | 43 ft | 0 kts | 206° |
| 2026-04-29 16:06 | 41.38344 | -70.60756 | 184 ft | 0 kts | 207° |
| 2026-04-29 16:06 | 41.38948 | -70.61356 | 61 ft | 0 kts | 207° |
| 2026-04-29 16:06 | 41.38947 | -70.61356 | 61 ft | 0 kts | 207° |
| 2026-04-29 16:06 | 41.38931 | -70.61313 | 60 ft | 0 kts | 207° |
| 2026-04-29 16:07 | 41.38815 | -70.61472 | 61 ft | 0 kts | 207° |